sensor_id;sensor_type;location;lat;lon;timestamp;P1;durP1;ratioP1;P2;durP2;ratioP2
37065;SDS011;22981;43.080;25.550;2022-10-18T06:15:55;15.93;;;13.50;;
37065;SDS011;22981;43.080;25.550;2022-10-18T06:18:23;17.27;;;13.17;;
37065;SDS011;22981;43.080;25.550;2022-10-18T06:20:57;15.65;;;12.88;;
37065;SDS011;22981;43.080;25.550;2022-10-18T06:23:25;21.33;;;16.05;;
37065;SDS011;22981;43.080;25.550;2022-10-18T06:26:03;18.85;;;14.83;;
37065;SDS011;22981;43.080;25.550;2022-10-18T06:28:33;19.55;;;14.05;;
37065;SDS011;22981;43.080;25.550;2022-10-18T06:31:01;17.95;;;13.83;;
37065;SDS011;22981;43.080;25.550;2022-10-18T06:33:30;15.85;;;14.13;;
37065;SDS011;22981;43.080;25.550;2022-10-18T06:35:59;19.00;;;14.75;;
37065;SDS011;22981;43.080;25.550;2022-10-18T06:38:28;13.75;;;12.00;;
37065;SDS011;22981;43.080;25.550;2022-10-18T06:40:57;18.67;;;13.83;;
37065;SDS011;22981;43.080;25.550;2022-10-18T06:43:25;16.80;;;12.28;;
37065;SDS011;22981;43.080;25.550;2022-10-18T06:45:53;18.07;;;13.72;;
37065;SDS011;22981;43.080;25.550;2022-10-18T06:48:21;16.17;;;13.00;;
37065;SDS011;22981;43.080;25.550;2022-10-18T06:50:52;16.15;;;11.97;;
37065;SDS011;22981;43.080;25.550;2022-10-18T06:53:24;15.63;;;12.33;;
37065;SDS011;22981;43.080;25.550;2022-10-18T06:56:00;16.07;;;13.10;;
37065;SDS011;22981;43.080;25.550;2022-10-18T06:58:29;21.07;;;15.15;;
37065;SDS011;22981;43.080;25.550;2022-10-18T07:01:03;17.60;;;14.53;;
37065;SDS011;22981;43.080;25.550;2022-10-18T07:03:37;17.87;;;15.10;;
37065;SDS011;22981;43.080;25.550;2022-10-18T07:06:06;19.65;;;15.13;;
37065;SDS011;22981;43.080;25.550;2022-10-18T07:08:34;57.05;;;34.88;;
37065;SDS011;22981;43.080;25.550;2022-10-18T07:11:03;61.85;;;37.42;;
37065;SDS011;22981;43.080;25.550;2022-10-18T07:13:32;32.95;;;21.87;;
37065;SDS011;22981;43.080;25.550;2022-10-18T07:16:04;22.58;;;16.40;;
37065;SDS011;22981;43.080;25.550;2022-10-18T07:18:37;53.83;;;32.98;;
37065;SDS011;22981;43.080;25.550;2022-10-18T07:21:07;25.82;;;18.30;;
37065;SDS011;22981;43.080;25.550;2022-10-18T07:23:37;30.77;;;20.08;;
37065;SDS011;22981;43.080;25.550;2022-10-18T07:28:43;22.70;;;15.85;;
37065;SDS011;22981;43.080;25.550;2022-10-18T07:31:13;17.70;;;12.47;;
37065;SDS011;22981;43.080;25.550;2022-10-18T07:33:41;18.37;;;13.00;;
37065;SDS011;22981;43.080;25.550;2022-10-18T07:36:09;14.87;;;11.70;;
37065;SDS011;22981;43.080;25.550;2022-10-18T07:38:38;17.35;;;11.50;;
37065;SDS011;22981;43.080;25.550;2022-10-18T07:41:06;17.02;;;12.30;;
37065;SDS011;22981;43.080;25.550;2022-10-18T07:43:36;17.37;;;11.05;;
37065;SDS011;22981;43.080;25.550;2022-10-18T07:46:05;16.97;;;12.88;;
37065;SDS011;22981;43.080;25.550;2022-10-18T07:48:32;15.85;;;12.28;;
37065;SDS011;22981;43.080;25.550;2022-10-18T07:51:00;16.23;;;12.15;;
37065;SDS011;22981;43.080;25.550;2022-10-18T07:53:28;14.07;;;11.97;;
37065;SDS011;22981;43.080;25.550;2022-10-18T07:55:57;14.45;;;11.65;;
37065;SDS011;22981;43.080;25.550;2022-10-18T07:58:26;15.72;;;11.40;;
37065;SDS011;22981;43.080;25.550;2022-10-18T08:00:53;17.05;;;10.72;;
37065;SDS011;22981;43.080;25.550;2022-10-18T08:03:22;15.13;;;11.40;;
37065;SDS011;22981;43.080;25.550;2022-10-18T08:05:52;15.20;;;11.15;;
37065;SDS011;22981;43.080;25.550;2022-10-18T08:08:23;16.50;;;11.08;;
37065;SDS011;22981;43.080;25.550;2022-10-18T08:10:50;14.65;;;9.80;;
37065;SDS011;22981;43.080;25.550;2022-10-18T08:13:18;11.55;;;9.70;;
37065;SDS011;22981;43.080;25.550;2022-10-18T08:15:46;14.20;;;9.45;;
37065;SDS011;22981;43.080;25.550;2022-10-18T08:18:14;13.93;;;9.58;;
37065;SDS011;22981;43.080;25.550;2022-10-18T08:20:44;15.80;;;9.93;;
37065;SDS011;22981;43.080;25.550;2022-10-18T08:23:12;12.45;;;9.05;;
37065;SDS011;22981;43.080;25.550;2022-10-18T08:25:40;11.88;;;7.58;;
37065;SDS011;22981;43.080;25.550;2022-10-18T08:28:07;10.48;;;7.87;;
37065;SDS011;22981;43.080;25.550;2022-10-18T08:30:35;12.25;;;7.33;;
37065;SDS011;22981;43.080;25.550;2022-10-18T08:33:02;11.38;;;7.85;;
37065;SDS011;22981;43.080;25.550;2022-10-18T08:35:30;11.05;;;6.62;;
37065;SDS011;22981;43.080;25.550;2022-10-18T08:37:58;9.98;;;6.25;;
37065;SDS011;22981;43.080;25.550;2022-10-18T08:40:26;6.58;;;5.00;;
37065;SDS011;22981;43.080;25.550;2022-10-18T08:45:33;8.55;;;5.87;;
37065;SDS011;22981;43.080;25.550;2022-10-18T08:48:03;6.10;;;4.53;;
37065;SDS011;22981;43.080;25.550;2022-10-18T08:50:32;6.90;;;4.30;;
37065;SDS011;22981;43.080;25.550;2022-10-18T08:55:36;6.87;;;4.60;;
37065;SDS011;22981;43.080;25.550;2022-10-18T08:58:21;9.50;;;4.75;;
37065;SDS011;22981;43.080;25.550;2022-10-18T09:06:33;7.53;;;4.28;;
37065;SDS011;22981;43.080;25.550;2022-10-18T09:17:20;7.87;;;4.10;;
37065;SDS011;22981;43.080;25.550;2022-10-18T09:25:21;5.90;;;3.65;;
37065;SDS011;22981;43.080;25.550;2022-10-18T09:27:54;6.92;;;3.70;;
37065;SDS011;22981;43.080;25.550;2022-10-18T09:30:25;10.78;;;3.62;;
37065;SDS011;22981;43.080;25.550;2022-10-18T09:32:56;8.38;;;3.77;;
37065;SDS011;22981;43.080;25.550;2022-10-18T09:35:26;6.45;;;3.52;;
37065;SDS011;22981;43.080;25.550;2022-10-18T09:38:03;5.47;;;3.37;;
37065;SDS011;22981;43.080;25.550;2022-10-18T09:40:34;6.90;;;3.87;;
37065;SDS011;22981;43.080;25.550;2022-10-18T09:43:07;5.45;;;3.62;;
37065;SDS011;22981;43.080;25.550;2022-10-18T09:45:40;8.48;;;3.70;;
37065;SDS011;22981;43.080;25.550;2022-10-18T09:48:25;6.12;;;3.33;;
37065;SDS011;22981;43.080;25.550;2022-10-18T09:50:57;9.95;;;3.22;;
37065;SDS011;22981;43.080;25.550;2022-10-18T09:56:35;7.25;;;3.40;;
37065;SDS011;22981;43.080;25.550;2022-10-18T09:59:00;6.25;;;3.72;;
37065;SDS011;22981;43.080;25.550;2022-10-18T10:01:28;5.92;;;3.30;;
37065;SDS011;22981;43.080;25.550;2022-10-18T10:03:58;3.92;;;3.02;;
37065;SDS011;22981;43.080;25.550;2022-10-18T10:06:31;4.90;;;3.05;;
37065;SDS011;22981;43.080;25.550;2022-10-18T10:09:04;5.72;;;3.33;;
37065;SDS011;22981;43.080;25.550;2022-10-18T10:11:42;3.52;;;2.47;;
37065;SDS011;22981;43.080;25.550;2022-10-18T10:16:48;6.83;;;2.77;;
37065;SDS011;22981;43.080;25.550;2022-10-18T10:19:23;5.03;;;2.70;;
37065;SDS011;22981;43.080;25.550;2022-10-18T10:22:03;5.78;;;2.52;;
37065;SDS011;22981;43.080;25.550;2022-10-18T10:24:49;4.75;;;2.50;;
37065;SDS011;22981;43.080;25.550;2022-10-18T10:27:18;5.47;;;2.77;;
37065;SDS011;22981;43.080;25.550;2022-10-18T10:29:50;6.97;;;2.80;;
37065;SDS011;22981;43.080;25.550;2022-10-18T10:32:20;4.57;;;2.07;;
37065;SDS011;22981;43.080;25.550;2022-10-18T10:34:49;4.10;;;2.00;;
37065;SDS011;22981;43.080;25.550;2022-10-18T10:37:32;3.98;;;2.17;;
37065;SDS011;22981;43.080;25.550;2022-10-18T10:42:53;4.87;;;2.30;;
37065;SDS011;22981;43.080;25.550;2022-10-18T10:45:25;8.03;;;5.92;;
37065;SDS011;22981;43.080;25.550;2022-10-18T10:48:04;2.65;;;2.22;;
37065;SDS011;22981;43.080;25.550;2022-10-18T10:50:45;6.12;;;1.82;;
37065;SDS011;22981;43.080;25.550;2022-10-18T10:53:04;4.35;;;1.65;;
37065;SDS011;22981;43.080;25.550;2022-10-18T10:55:33;6.05;;;2.00;;
37065;SDS011;22981;43.080;25.550;2022-10-18T10:58:02;3.50;;;2.08;;
37065;SDS011;22981;43.080;25.550;2022-10-18T11:03:09;3.35;;;1.90;;
37065;SDS011;22981;43.080;25.550;2022-10-18T11:05:41;3.37;;;2.33;;
37065;SDS011;22981;43.080;25.550;2022-10-18T11:08:04;6.35;;;2.90;;
37065;SDS011;22981;43.080;25.550;2022-10-18T11:10:33;3.95;;;1.92;;
37065;SDS011;22981;43.080;25.550;2022-10-18T11:15:45;3.27;;;1.55;;
37065;SDS011;22981;43.080;25.550;2022-10-18T11:18:23;3.52;;;1.98;;
37065;SDS011;22981;43.080;25.550;2022-10-18T11:21:05;2.90;;;1.95;;
37065;SDS011;22981;43.080;25.550;2022-10-18T11:23:37;2.37;;;1.77;;
37065;SDS011;22981;43.080;25.550;2022-10-18T11:28:52;1.50;;;1.40;;
37065;SDS011;22981;43.080;25.550;2022-10-18T11:31:40;3.15;;;2.30;;
37065;SDS011;22981;43.080;25.550;2022-10-18T11:34:24;2.47;;;1.70;;
37065;SDS011;22981;43.080;25.550;2022-10-18T11:37:03;4.03;;;1.95;;
37065;SDS011;22981;43.080;25.550;2022-10-18T11:50:49;2.40;;;1.90;;
37065;SDS011;22981;43.080;25.550;2022-10-18T11:56:09;6.17;;;2.20;;
37065;SDS011;22981;43.080;25.550;2022-10-18T12:01:40;3.72;;;2.02;;
37065;SDS011;22981;43.080;25.550;2022-10-18T12:04:18;4.45;;;2.00;;
37065;SDS011;22981;43.080;25.550;2022-10-18T12:06:50;5.37;;;2.35;;
37065;SDS011;22981;43.080;25.550;2022-10-18T12:12:23;3.70;;;2.00;;
37065;SDS011;22981;43.080;25.550;2022-10-18T12:14:50;4.70;;;3.10;;
37065;SDS011;22981;43.080;25.550;2022-10-18T12:22:49;4.20;;;1.80;;
37065;SDS011;22981;43.080;25.550;2022-10-18T12:25:34;6.47;;;3.47;;
37065;SDS011;22981;43.080;25.550;2022-10-18T12:30:52;5.40;;;2.17;;
37065;SDS011;22981;43.080;25.550;2022-10-18T12:33:40;6.05;;;2.90;;
37065;SDS011;22981;43.080;25.550;2022-10-18T12:39:02;2.40;;;1.65;;
37065;SDS011;22981;43.080;25.550;2022-10-18T12:41:32;10.38;;;2.65;;
37065;SDS011;22981;43.080;25.550;2022-10-18T12:44:05;5.15;;;2.08;;
37065;SDS011;22981;43.080;25.550;2022-10-18T12:46:44;5.80;;;3.42;;
37065;SDS011;22981;43.080;25.550;2022-10-18T12:49:24;4.55;;;2.80;;
37065;SDS011;22981;43.080;25.550;2022-10-18T12:51:51;4.50;;;2.12;;
37065;SDS011;22981;43.080;25.550;2022-10-18T12:54:25;4.22;;;1.82;;
37065;SDS011;22981;43.080;25.550;2022-10-18T12:56:55;2.85;;;1.77;;
37065;SDS011;22981;43.080;25.550;2022-10-18T13:09:35;2.47;;;1.80;;
37065;SDS011;22981;43.080;25.550;2022-10-18T13:14:54;3.30;;;1.90;;
37065;SDS011;22981;43.080;25.550;2022-10-18T13:17:49;3.42;;;1.98;;
37065;SDS011;22981;43.080;25.550;2022-10-18T13:20:50;4.92;;;2.00;;
37065;SDS011;22981;43.080;25.550;2022-10-18T13:26:24;2.70;;;1.95;;
37065;SDS011;22981;43.080;25.550;2022-10-18T13:32:22;2.47;;;1.62;;
37065;SDS011;22981;43.080;25.550;2022-10-18T13:35:01;3.52;;;2.33;;
37065;SDS011;22981;43.080;25.550;2022-10-18T13:37:31;3.72;;;1.77;;
37065;SDS011;22981;43.080;25.550;2022-10-18T13:40:14;5.25;;;2.02;;
37065;SDS011;22981;43.080;25.550;2022-10-18T13:42:49;3.55;;;2.10;;
37065;SDS011;22981;43.080;25.550;2022-10-18T13:50:47;2.95;;;1.75;;
37065;SDS011;22981;43.080;25.550;2022-10-18T13:53:23;4.12;;;1.77;;
37065;SDS011;22981;43.080;25.550;2022-10-18T13:55:54;3.67;;;1.85;;
37065;SDS011;22981;43.080;25.550;2022-10-18T14:01:16;3.98;;;2.00;;
37065;SDS011;22981;43.080;25.550;2022-10-18T14:04:00;3.45;;;1.87;;
37065;SDS011;22981;43.080;25.550;2022-10-18T14:06:31;4.85;;;1.80;;
37065;SDS011;22981;43.080;25.550;2022-10-18T14:09:05;5.28;;;2.17;;
37065;SDS011;22981;43.080;25.550;2022-10-18T14:11:44;7.30;;;2.33;;
37065;SDS011;22981;43.080;25.550;2022-10-18T14:22:47;4.97;;;2.00;;
37065;SDS011;22981;43.080;25.550;2022-10-18T14:25:19;4.83;;;2.10;;
37065;SDS011;22981;43.080;25.550;2022-10-18T14:28:06;4.05;;;2.10;;
37065;SDS011;22981;43.080;25.550;2022-10-18T14:30:31;2.72;;;1.80;;
37065;SDS011;22981;43.080;25.550;2022-10-18T14:33:00;2.92;;;1.77;;
37065;SDS011;22981;43.080;25.550;2022-10-18T14:35:29;4.90;;;2.25;;
37065;SDS011;22981;43.080;25.550;2022-10-18T14:38:00;4.37;;;1.80;;
37065;SDS011;22981;43.080;25.550;2022-10-18T14:40:36;3.22;;;1.80;;
37065;SDS011;22981;43.080;25.550;2022-10-18T14:45:38;7.25;;;2.45;;
37065;SDS011;22981;43.080;25.550;2022-10-18T14:48:17;4.58;;;2.05;;
37065;SDS011;22981;43.080;25.550;2022-10-18T14:50:52;4.25;;;1.57;;
37065;SDS011;22981;43.080;25.550;2022-10-18T14:53:24;4.97;;;1.92;;
37065;SDS011;22981;43.080;25.550;2022-10-18T14:55:59;4.23;;;1.73;;
37065;SDS011;22981;43.080;25.550;2022-10-18T14:58:32;3.27;;;1.90;;
37065;SDS011;22981;43.080;25.550;2022-10-18T15:01:03;5.58;;;1.92;;
37065;SDS011;22981;43.080;25.550;2022-10-18T15:03:31;3.20;;;1.77;;
37065;SDS011;22981;43.080;25.550;2022-10-18T15:06:02;4.08;;;2.42;;
37065;SDS011;22981;43.080;25.550;2022-10-18T15:08:37;6.15;;;3.00;;
37065;SDS011;22981;43.080;25.550;2022-10-18T15:11:03;6.78;;;2.58;;
37065;SDS011;22981;43.080;25.550;2022-10-18T15:13:32;5.33;;;2.67;;
37065;SDS011;22981;43.080;25.550;2022-10-18T15:16:02;6.75;;;2.50;;
37065;SDS011;22981;43.080;25.550;2022-10-18T15:18:30;5.83;;;2.15;;
37065;SDS011;22981;43.080;25.550;2022-10-18T15:23:48;3.67;;;1.55;;
37065;SDS011;22981;43.080;25.550;2022-10-18T15:26:21;3.27;;;2.10;;
37065;SDS011;22981;43.080;25.550;2022-10-18T15:28:54;5.92;;;2.22;;
37065;SDS011;22981;43.080;25.550;2022-10-18T15:31:25;13.55;;;8.33;;
37065;SDS011;22981;43.080;25.550;2022-10-18T15:34:10;9.18;;;7.37;;
37065;SDS011;22981;43.080;25.550;2022-10-18T15:36:37;9.60;;;7.05;;
37065;SDS011;22981;43.080;25.550;2022-10-18T15:39:18;38.38;;;7.22;;
37065;SDS011;22981;43.080;25.550;2022-10-18T15:42:00;14.10;;;5.65;;
37065;SDS011;22981;43.080;25.550;2022-10-18T15:47:58;13.10;;;6.25;;
37065;SDS011;22981;43.080;25.550;2022-10-18T15:52:27;6.72;;;4.50;;
37065;SDS011;22981;43.080;25.550;2022-10-18T15:54:55;10.03;;;4.30;;
37065;SDS011;22981;43.080;25.550;2022-10-18T15:57:23;6.72;;;3.75;;
37065;SDS011;22981;43.080;25.550;2022-10-18T15:59:58;14.03;;;5.10;;
37065;SDS011;22981;43.080;25.550;2022-10-18T16:02:31;9.38;;;3.95;;
37065;SDS011;22981;43.080;25.550;2022-10-18T16:04:59;10.23;;;5.53;;
37065;SDS011;22981;43.080;25.550;2022-10-18T16:07:28;7.60;;;4.40;;
37065;SDS011;22981;43.080;25.550;2022-10-18T16:09:55;9.18;;;5.08;;
37065;SDS011;22981;43.080;25.550;2022-10-18T16:12:23;11.63;;;6.65;;
37065;SDS011;22981;43.080;25.550;2022-10-18T16:14:50;15.95;;;7.83;;
37065;SDS011;22981;43.080;25.550;2022-10-18T16:17:18;15.68;;;10.43;;
37065;SDS011;22981;43.080;25.550;2022-10-18T16:19:45;20.62;;;12.53;;
37065;SDS011;22981;43.080;25.550;2022-10-18T16:22:13;17.98;;;11.88;;
37065;SDS011;22981;43.080;25.550;2022-10-18T16:24:41;17.32;;;11.57;;
37065;SDS011;22981;43.080;25.550;2022-10-18T16:27:08;22.00;;;10.75;;
37065;SDS011;22981;43.080;25.550;2022-10-18T16:29:36;14.75;;;10.70;;
37065;SDS011;22981;43.080;25.550;2022-10-18T16:32:05;15.38;;;10.63;;
37065;SDS011;22981;43.080;25.550;2022-10-18T16:34:33;16.87;;;10.53;;
37065;SDS011;22981;43.080;25.550;2022-10-18T16:37:01;15.32;;;11.55;;
37065;SDS011;22981;43.080;25.550;2022-10-18T16:39:28;14.70;;;10.38;;
37065;SDS011;22981;43.080;25.550;2022-10-18T16:41:57;15.78;;;9.50;;
37065;SDS011;22981;43.080;25.550;2022-10-18T16:44:25;17.17;;;11.03;;
37065;SDS011;22981;43.080;25.550;2022-10-18T16:46:52;18.05;;;13.48;;
37065;SDS011;22981;43.080;25.550;2022-10-18T16:49:21;22.00;;;14.65;;
37065;SDS011;22981;43.080;25.550;2022-10-18T16:51:50;23.45;;;15.48;;
37065;SDS011;22981;43.080;25.550;2022-10-18T16:54:19;24.77;;;18.85;;
37065;SDS011;22981;43.080;25.550;2022-10-18T16:56:47;25.30;;;17.15;;
37065;SDS011;22981;43.080;25.550;2022-10-18T16:59:28;21.37;;;16.05;;
37065;SDS011;22981;43.080;25.550;2022-10-18T17:01:57;18.85;;;12.35;;
37065;SDS011;22981;43.080;25.550;2022-10-18T17:04:26;12.35;;;9.50;;
37065;SDS011;22981;43.080;25.550;2022-10-18T17:06:53;11.53;;;6.22;;
37065;SDS011;22981;43.080;25.550;2022-10-18T17:09:24;7.62;;;5.30;;
37065;SDS011;22981;43.080;25.550;2022-10-18T17:11:52;5.42;;;4.20;;
37065;SDS011;22981;43.080;25.550;2022-10-18T17:14:20;23.15;;;15.65;;
37065;SDS011;22981;43.080;25.550;2022-10-18T17:16:47;27.87;;;20.17;;
37065;SDS011;22981;43.080;25.550;2022-10-18T17:19:15;26.07;;;17.75;;
37065;SDS011;22981;43.080;25.550;2022-10-18T17:21:42;27.05;;;18.62;;
37065;SDS011;22981;43.080;25.550;2022-10-18T17:24:10;41.98;;;27.13;;
37065;SDS011;22981;43.080;25.550;2022-10-18T17:26:38;45.90;;;30.40;;
37065;SDS011;22981;43.080;25.550;2022-10-18T17:29:05;22.22;;;16.82;;
37065;SDS011;22981;43.080;25.550;2022-10-18T17:31:33;38.58;;;24.87;;
37065;SDS011;22981;43.080;25.550;2022-10-18T17:34:01;31.50;;;21.80;;
37065;SDS011;22981;43.080;25.550;2022-10-18T17:36:30;30.50;;;20.62;;
37065;SDS011;22981;43.080;25.550;2022-10-18T17:38:58;30.57;;;21.52;;
37065;SDS011;22981;43.080;25.550;2022-10-18T17:41:26;35.03;;;20.45;;
37065;SDS011;22981;43.080;25.550;2022-10-18T17:43:54;32.42;;;22.48;;
37065;SDS011;22981;43.080;25.550;2022-10-18T17:46:21;30.68;;;22.62;;
37065;SDS011;22981;43.080;25.550;2022-10-18T17:48:51;27.85;;;20.57;;
37065;SDS011;22981;43.080;25.550;2022-10-18T17:51:20;31.52;;;19.82;;
37065;SDS011;22981;43.080;25.550;2022-10-18T17:53:49;27.62;;;17.23;;
37065;SDS011;22981;43.080;25.550;2022-10-18T17:56:16;24.90;;;16.57;;
37065;SDS011;22981;43.080;25.550;2022-10-18T17:58:44;22.52;;;13.70;;
37065;SDS011;22981;43.080;25.550;2022-10-18T18:01:14;16.80;;;11.88;;
37065;SDS011;22981;43.080;25.550;2022-10-18T18:03:43;19.75;;;13.53;;
37065;SDS011;22981;43.080;25.550;2022-10-18T18:06:14;18.67;;;13.00;;
37065;SDS011;22981;43.080;25.550;2022-10-18T18:08:43;18.10;;;13.43;;
37065;SDS011;22981;43.080;25.550;2022-10-18T18:11:12;20.32;;;14.98;;
37065;SDS011;22981;43.080;25.550;2022-10-18T18:13:40;20.32;;;13.80;;
37065;SDS011;22981;43.080;25.550;2022-10-18T18:16:08;22.75;;;14.95;;
37065;SDS011;22981;43.080;25.550;2022-10-18T18:18:39;23.02;;;14.95;;
37065;SDS011;22981;43.080;25.550;2022-10-18T18:21:07;20.68;;;14.35;;
37065;SDS011;22981;43.080;25.550;2022-10-18T18:23:35;21.27;;;14.73;;
37065;SDS011;22981;43.080;25.550;2022-10-18T18:26:03;19.85;;;14.63;;
37065;SDS011;22981;43.080;25.550;2022-10-18T18:28:31;21.62;;;14.45;;
37065;SDS011;22981;43.080;25.550;2022-10-18T18:31:04;23.00;;;14.78;;
37065;SDS011;22981;43.080;25.550;2022-10-18T18:33:36;23.50;;;15.58;;
37065;SDS011;22981;43.080;25.550;2022-10-18T18:36:04;23.77;;;16.05;;
37065;SDS011;22981;43.080;25.550;2022-10-18T18:38:32;21.15;;;14.83;;
37065;SDS011;22981;43.080;25.550;2022-10-18T18:41:11;22.52;;;14.87;;
37065;SDS011;22981;43.080;25.550;2022-10-18T18:43:44;25.88;;;15.38;;
37065;SDS011;22981;43.080;25.550;2022-10-18T18:46:14;20.57;;;13.28;;
37065;SDS011;22981;43.080;25.550;2022-10-18T18:48:41;18.65;;;13.00;;
37065;SDS011;22981;43.080;25.550;2022-10-18T18:51:10;16.23;;;11.22;;
37065;SDS011;22981;43.080;25.550;2022-10-18T18:53:40;15.72;;;9.50;;
37065;SDS011;22981;43.080;25.550;2022-10-18T18:56:09;13.98;;;9.10;;
37065;SDS011;22981;43.080;25.550;2022-10-18T18:58:39;15.45;;;9.45;;
37065;SDS011;22981;43.080;25.550;2022-10-18T19:01:09;14.60;;;9.88;;
37065;SDS011;22981;43.080;25.550;2022-10-18T19:03:39;13.85;;;9.83;;
37065;SDS011;22981;43.080;25.550;2022-10-18T19:06:10;13.45;;;9.48;;
37065;SDS011;22981;43.080;25.550;2022-10-18T19:08:38;17.65;;;9.25;;
37065;SDS011;22981;43.080;25.550;2022-10-18T19:11:11;15.10;;;9.23;;
37065;SDS011;22981;43.080;25.550;2022-10-18T19:13:43;16.77;;;10.70;;
37065;SDS011;22981;43.080;25.550;2022-10-18T19:16:21;16.02;;;10.25;;
37065;SDS011;22981;43.080;25.550;2022-10-18T19:21:31;23.02;;;13.98;;
37065;SDS011;22981;43.080;25.550;2022-10-18T19:24:01;27.67;;;14.58;;
37065;SDS011;22981;43.080;25.550;2022-10-18T19:26:30;22.45;;;13.70;;
37065;SDS011;22981;43.080;25.550;2022-10-18T19:29:28;23.70;;;15.05;;
37065;SDS011;22981;43.080;25.550;2022-10-18T19:32:01;19.98;;;14.43;;
37065;SDS011;22981;43.080;25.550;2022-10-18T19:34:33;24.05;;;13.95;;
37065;SDS011;22981;43.080;25.550;2022-10-18T19:37:01;20.45;;;14.50;;
37065;SDS011;22981;43.080;25.550;2022-10-18T19:39:30;21.50;;;15.28;;
37065;SDS011;22981;43.080;25.550;2022-10-18T19:41:59;27.02;;;17.90;;
37065;SDS011;22981;43.080;25.550;2022-10-18T19:44:31;38.60;;;26.33;;
37065;SDS011;22981;43.080;25.550;2022-10-18T19:47:00;59.55;;;35.98;;
37065;SDS011;22981;43.080;25.550;2022-10-18T19:49:30;61.42;;;36.70;;
37065;SDS011;22981;43.080;25.550;2022-10-18T19:51:57;49.03;;;33.25;;
37065;SDS011;22981;43.080;25.550;2022-10-18T19:54:25;49.80;;;31.65;;
37065;SDS011;22981;43.080;25.550;2022-10-18T19:56:52;48.52;;;33.60;;
37065;SDS011;22981;43.080;25.550;2022-10-18T19:59:20;50.88;;;33.15;;
37065;SDS011;22981;43.080;25.550;2022-10-18T20:01:49;42.75;;;29.42;;
37065;SDS011;22981;43.080;25.550;2022-10-18T20:04:17;43.98;;;27.13;;
37065;SDS011;22981;43.080;25.550;2022-10-18T20:06:44;26.05;;;19.35;;
37065;SDS011;22981;43.080;25.550;2022-10-18T20:09:12;27.15;;;18.25;;
37065;SDS011;22981;43.080;25.550;2022-10-18T20:11:40;21.25;;;16.35;;
37065;SDS011;22981;43.080;25.550;2022-10-18T20:14:07;35.78;;;23.02;;
37065;SDS011;22981;43.080;25.550;2022-10-18T20:16:35;28.65;;;17.57;;
37065;SDS011;22981;43.080;25.550;2022-10-18T20:19:03;21.62;;;13.80;;
37065;SDS011;22981;43.080;25.550;2022-10-18T20:21:32;18.90;;;12.60;;
37065;SDS011;22981;43.080;25.550;2022-10-18T20:24:05;18.15;;;11.95;;
37065;SDS011;22981;43.080;25.550;2022-10-18T20:26:30;17.52;;;11.57;;
37065;SDS011;22981;43.080;25.550;2022-10-18T20:28:59;16.32;;;11.63;;
37065;SDS011;22981;43.080;25.550;2022-10-18T20:31:27;22.27;;;14.47;;
37065;SDS011;22981;43.080;25.550;2022-10-18T20:33:57;75.75;;;35.10;;
37065;SDS011;22981;43.080;25.550;2022-10-18T20:36:26;73.62;;;35.92;;
37065;SDS011;22981;43.080;25.550;2022-10-18T20:38:55;94.70;;;44.10;;
37065;SDS011;22981;43.080;25.550;2022-10-18T20:41:24;100.70;;;46.45;;
37065;SDS011;22981;43.080;25.550;2022-10-18T20:44:02;57.17;;;29.55;;
37065;SDS011;22981;43.080;25.550;2022-10-18T20:48:57;49.42;;;26.23;;
37065;SDS011;22981;43.080;25.550;2022-10-18T20:51:25;41.10;;;21.95;;
37065;SDS011;22981;43.080;25.550;2022-10-18T20:53:52;33.48;;;19.67;;
37065;SDS011;22981;43.080;25.550;2022-10-18T20:56:23;20.48;;;14.23;;
37065;SDS011;22981;43.080;25.550;2022-10-18T20:58:57;19.62;;;13.32;;
37065;SDS011;22981;43.080;25.550;2022-10-18T21:01:23;24.52;;;12.00;;
37065;SDS011;22981;43.080;25.550;2022-10-18T21:03:52;17.80;;;11.20;;
37065;SDS011;22981;43.080;25.550;2022-10-18T21:06:22;17.85;;;10.98;;
37065;SDS011;22981;43.080;25.550;2022-10-18T21:08:57;17.32;;;12.25;;
37065;SDS011;22981;43.080;25.550;2022-10-18T21:11:21;32.40;;;21.62;;
37065;SDS011;22981;43.080;25.550;2022-10-18T21:13:50;30.57;;;21.95;;
37065;SDS011;22981;43.080;25.550;2022-10-18T21:16:18;27.62;;;19.77;;
37065;SDS011;22981;43.080;25.550;2022-10-18T21:18:46;22.62;;;15.70;;
37065;SDS011;22981;43.080;25.550;2022-10-18T21:21:15;16.48;;;13.90;;
37065;SDS011;22981;43.080;25.550;2022-10-18T21:23:44;17.75;;;12.80;;
37065;SDS011;22981;43.080;25.550;2022-10-18T21:26:13;20.75;;;14.93;;
37065;SDS011;22981;43.080;25.550;2022-10-18T21:28:43;20.17;;;14.87;;
37065;SDS011;22981;43.080;25.550;2022-10-18T21:31:12;22.65;;;14.40;;
37065;SDS011;22981;43.080;25.550;2022-10-18T21:33:42;20.68;;;14.00;;
37065;SDS011;22981;43.080;25.550;2022-10-18T21:36:11;18.32;;;13.50;;
37065;SDS011;22981;43.080;25.550;2022-10-18T21:38:41;18.85;;;12.95;;
37065;SDS011;22981;43.080;25.550;2022-10-18T21:41:12;19.52;;;12.78;;
37065;SDS011;22981;43.080;25.550;2022-10-18T21:43:41;22.32;;;13.72;;
37065;SDS011;22981;43.080;25.550;2022-10-18T21:46:11;26.07;;;17.92;;
37065;SDS011;22981;43.080;25.550;2022-10-18T21:48:44;17.90;;;11.95;;
37065;SDS011;22981;43.080;25.550;2022-10-18T21:51:10;14.75;;;10.45;;
37065;SDS011;22981;43.080;25.550;2022-10-18T21:53:40;13.78;;;10.70;;
37065;SDS011;22981;43.080;25.550;2022-10-18T21:56:10;22.05;;;15.50;;
37065;SDS011;22981;43.080;25.550;2022-10-18T21:58:39;23.22;;;15.68;;
37065;SDS011;22981;43.080;25.550;2022-10-18T22:01:07;19.40;;;14.30;;
37065;SDS011;22981;43.080;25.550;2022-10-18T22:03:36;20.75;;;15.30;;
37065;SDS011;22981;43.080;25.550;2022-10-18T22:06:05;21.85;;;15.35;;
37065;SDS011;22981;43.080;25.550;2022-10-18T22:08:36;17.10;;;13.45;;
37065;SDS011;22981;43.080;25.550;2022-10-18T22:11:03;17.27;;;11.88;;
37065;SDS011;22981;43.080;25.550;2022-10-18T22:13:31;16.35;;;11.88;;
37065;SDS011;22981;43.080;25.550;2022-10-18T22:16:00;18.98;;;11.85;;
37065;SDS011;22981;43.080;25.550;2022-10-18T22:18:28;16.45;;;11.80;;
37065;SDS011;22981;43.080;25.550;2022-10-18T22:21:03;21.40;;;13.25;;
37065;SDS011;22981;43.080;25.550;2022-10-18T22:23:31;18.12;;;10.50;;
37065;SDS011;22981;43.080;25.550;2022-10-18T22:26:17;21.35;;;13.25;;
37065;SDS011;22981;43.080;25.550;2022-10-18T22:28:47;18.92;;;12.03;;
37065;SDS011;22981;43.080;25.550;2022-10-18T22:31:23;21.25;;;12.43;;
37065;SDS011;22981;43.080;25.550;2022-10-18T22:33:53;15.35;;;11.00;;
37065;SDS011;22981;43.080;25.550;2022-10-18T22:36:23;19.45;;;12.43;;
37065;SDS011;22981;43.080;25.550;2022-10-18T22:38:51;19.87;;;14.60;;
37065;SDS011;22981;43.080;25.550;2022-10-18T22:41:19;19.62;;;14.15;;
37065;SDS011;22981;43.080;25.550;2022-10-18T22:43:48;18.82;;;13.35;;
37065;SDS011;22981;43.080;25.550;2022-10-18T22:46:16;21.68;;;14.65;;
37065;SDS011;22981;43.080;25.550;2022-10-18T22:48:44;17.98;;;13.48;;
37065;SDS011;22981;43.080;25.550;2022-10-18T22:51:12;24.60;;;14.58;;
37065;SDS011;22981;43.080;25.550;2022-10-18T22:53:40;18.00;;;13.62;;
37065;SDS011;22981;43.080;25.550;2022-10-18T22:56:08;25.20;;;16.55;;
37065;SDS011;22981;43.080;25.550;2022-10-18T22:58:40;24.52;;;16.15;;
37065;SDS011;22981;43.080;25.550;2022-10-18T23:01:09;26.77;;;15.68;;